createdAt,value
2023-04-18T10:51:46.655Z,59.4273
2023-04-18T10:52:48.288Z,63.9800
2023-04-18T10:53:50.727Z,63.5023
2023-04-18T10:54:51.564Z,60.5649
2023-04-18T10:55:54.217Z,58.2413
2023-04-18T10:56:54.841Z,56.7575
2023-04-18T10:57:57.577Z,58.3485
2023-04-18T10:58:58.199Z,59.7938
2023-04-18T10:59:59.769Z,61.0519
2023-04-18T11:01:01.646Z,62.0818
2023-04-18T11:02:03.162Z,61.1987
2023-04-18T11:03:05.613Z,60.5748
2023-04-18T11:04:06.405Z,60.1754
2023-04-18T11:05:08.049Z,58.7072
2023-04-18T11:06:09.664Z,61.0033
2023-04-18T11:07:11.407Z,60.9603
2023-04-18T11:08:13.050Z,61.4231
2023-04-18T11:09:14.642Z,61.0310
2023-04-18T11:10:16.202Z,62.4561
2023-04-18T11:11:17.920Z,62.2182
2023-04-18T11:12:19.858Z,61.7683
2023-04-18T11:13:21.857Z,60.6689
2023-04-18T11:14:22.912Z,60.0556
2023-04-18T11:15:24.583Z,58.0626
2023-04-18T11:16:26.300Z,54.7042
2023-04-18T11:17:27.927Z,55.5595
2023-04-18T11:18:29.581Z,57.1849
2023-04-18T11:19:31.206Z,56.1241
2023-04-18T11:20:32.838Z,58.5732
2023-04-18T11:21:34.454Z,56.7499
2023-04-18T11:22:36.831Z,58.1598
2023-04-18T11:23:37.742Z,55.5528
2023-04-18T11:24:39.456Z,57.1014
2023-04-18T11:25:41.003Z,57.6678
2023-04-18T11:26:42.792Z,57.8188
2023-04-18T11:27:44.408Z,56.1349
2023-04-18T11:28:46.035Z,56.9889
2023-04-18T11:29:47.698Z,54.2866
2023-04-18T11:30:49.374Z,52.6162
2023-04-18T11:31:51.038Z,53.4967
2023-04-18T11:32:52.708Z,56.9532
2023-04-18T11:33:54.192Z,57.2727
2023-04-18T11:34:56.775Z,57.4891
2023-04-18T11:35:57.539Z,56.9469
2023-04-18T11:36:59.189Z,59.1555
2023-04-18T11:38:00.871Z,59.2113
2023-04-18T11:39:02.582Z,57.4765
2023-04-18T11:40:04.206Z,56.1212
2023-04-18T11:41:05.785Z,58.8043
2023-04-18T11:42:07.499Z,56.9990
2023-04-18T11:43:09.166Z,56.3941
2023-04-18T11:44:10.776Z,55.0596
2023-04-18T11:45:12.374Z,52.0459
2023-04-18T11:46:14.098Z,51.8248
2023-04-18T11:47:15.665Z,55.1013
2023-04-18T11:48:17.448Z,54.2239
2023-04-18T11:49:19.012Z,51.4999
2023-04-18T11:50:20.634Z,54.8797
2023-04-18T11:51:22.367Z,55.6237
2023-04-18T11:52:23.909Z,58.6959
2023-04-18T11:53:25.620Z,57.5100
2023-04-18T11:54:27.241Z,59.5891
2023-04-18T11:55:28.876Z,57.4569
2023-04-18T11:56:30.499Z,57.4030
2023-04-18T11:57:32.131Z,57.9025
2023-04-18T11:58:33.773Z,58.9903
2023-04-18T11:59:35.494Z,59.2471
2023-04-18T12:00:37.054Z,56.8537
2023-04-18T12:01:38.724Z,46.8343
2023-04-18T12:02:40.494Z,53.5966
2023-04-18T12:03:42.260Z,52.9832
2023-04-18T12:04:44.165Z,53.9769
2023-04-18T12:05:45.594Z,49.6945
2023-04-18T12:06:47.018Z,53.5835
2023-04-18T12:07:48.603Z,54.3001
2023-04-18T12:08:51.207Z,55.7279
2023-04-18T12:09:51.936Z,58.0895
2023-04-18T12:10:54.259Z,57.4120
2023-04-18T12:11:55.204Z,56.0014
2023-04-18T12:12:56.818Z,56.4032
2023-04-18T12:13:58.444Z,58.6836
2023-04-18T12:15:00.292Z,56.6235
2023-04-18T12:16:01.805Z,53.2932
2023-04-18T12:17:03.310Z,51.9068
2023-04-18T12:18:05.810Z,52.5493
2023-04-18T12:19:06.627Z,54.2843
2023-04-18T12:20:08.322Z,54.0437
2023-04-18T12:21:09.933Z,54.1937
2023-04-18T12:22:12.221Z,56.1492
2023-04-18T12:23:13.450Z,58.5103
2023-04-18T12:24:16.626Z,57.0483
2023-04-18T12:25:16.605Z,58.1072
2023-04-18T12:26:18.191Z,57.0167
2023-04-18T12:27:19.858Z,59.7864
2023-04-18T12:28:21.487Z,55.3264
2023-04-18T12:29:23.153Z,53.1744
2023-04-18T12:30:24.846Z,52.6231
2023-04-18T12:31:26.457Z,53.5983
2023-04-18T12:32:28.068Z,49.1417
2023-04-18T12:33:29.729Z,47.1433
2023-04-18T12:34:31.310Z,50.0029
2023-04-18T12:35:33.394Z,51.9935
2023-04-18T12:36:34.636Z,54.1108
2023-04-18T12:37:36.270Z,54.3512
2023-04-18T12:38:37.914Z,53.7383
2023-04-18T12:39:39.590Z,53.5872
2023-04-18T12:40:41.252Z,51.7754
2023-04-18T12:41:42.871Z,53.4917
2023-04-18T12:42:44.494Z,53.9176
2023-04-18T12:43:46.158Z,51.2686
2023-04-18T12:44:48.044Z,49.9747
2023-04-18T12:45:49.460Z,52.5379
2023-04-18T12:46:51.210Z,52.1853
2023-04-18T12:47:52.818Z,52.1664
2023-04-18T12:48:54.363Z,52.9825
2023-04-18T12:49:55.974Z,54.2734
2023-04-18T12:50:57.731Z,53.8911
2023-04-18T12:51:59.274Z,53.7741
2023-04-18T12:53:00.882Z,53.3790
2023-04-18T12:54:02.606Z,46.2080
2023-04-18T12:55:04.204Z,48.0294
2023-04-18T12:56:05.944Z,51.6889
2023-04-18T12:57:07.482Z,47.4681
2023-04-18T12:58:09.197Z,48.7721
2023-04-18T12:59:10.780Z,53.2944
2023-04-18T13:00:12.456Z,54.1928
2023-04-18T13:01:14.247Z,55.0679
2023-04-18T13:02:15.850Z,54.2974
2023-04-18T13:03:17.400Z,55.5257
2023-04-18T13:04:19.236Z,55.4039
2023-04-18T13:05:21.388Z,51.6203
2023-04-18T13:06:22.410Z,48.9711
2023-04-18T13:07:23.927Z,46.2404
2023-04-18T13:08:25.605Z,47.1803
2023-04-18T13:09:27.213Z,48.5269
2023-04-18T13:10:28.891Z,46.6080
2023-04-18T13:11:30.870Z,45.2127
2023-04-18T13:12:32.178Z,45.8646
2023-04-18T13:13:35.604Z,44.4330
2023-04-18T13:14:35.488Z,50.4893
2023-04-18T13:15:37.097Z,50.7197
2023-04-18T13:16:39.762Z,50.4878
2023-04-18T13:17:40.485Z,51.3103
2023-04-18T13:18:42.066Z,51.2304
2023-04-18T13:19:43.716Z,51.1770
2023-04-18T13:20:45.410Z,51.6371
2023-04-18T13:21:49.126Z,47.5177
2023-04-18T13:22:48.775Z,46.4621
2023-04-18T13:23:50.328Z,43.7119
2023-04-18T13:24:51.924Z,45.8962
2023-04-18T13:25:53.597Z,51.5940
2023-04-18T13:26:55.241Z,51.2593
2023-04-18T13:27:57.465Z,50.4501
2023-04-18T13:28:58.524Z,50.6135
2023-04-18T13:30:00.205Z,45.5114
2023-04-18T13:31:01.801Z,43.3008
2023-04-18T13:32:03.593Z,44.6789
2023-04-18T13:33:05.224Z,50.1890
2023-04-18T13:34:06.830Z,49.7768
2023-04-18T13:35:08.424Z,48.3855
2023-04-18T13:36:10.124Z,44.5046
2023-04-18T13:37:11.773Z,42.1265
2023-04-18T13:38:13.415Z,45.5698
2023-04-18T13:39:15.126Z,49.9550
2023-04-18T13:40:16.687Z,48.7320
2023-04-18T13:41:18.291Z,51.4913
2023-04-18T13:42:20.005Z,51.8671
2023-04-18T13:43:21.652Z,52.3562
2023-04-18T13:44:23.271Z,50.8103
2023-04-18T13:45:24.842Z,46.7546
2023-04-18T13:46:26.631Z,46.8691
2023-04-18T13:47:28.395Z,48.9318
2023-04-18T13:48:29.892Z,45.0973
2023-04-18T13:49:31.492Z,44.2373
2023-04-18T13:50:33.166Z,45.0349
2023-04-18T13:51:34.818Z,43.7365
2023-04-18T13:52:36.503Z,47.2566
2023-04-18T13:53:38.108Z,46.6056
2023-04-18T13:54:39.722Z,46.7297
2023-04-18T13:55:41.372Z,43.1698
2023-04-18T13:56:43.044Z,38.3810
2023-04-18T13:57:44.709Z,38.0923
2023-04-18T13:58:46.455Z,37.7878
2023-04-18T13:59:47.961Z,45.8601
2023-04-18T14:00:49.578Z,43.3503
2023-04-18T14:01:51.260Z,45.7599
2023-04-18T14:02:53.576Z,47.3483
2023-04-18T14:03:54.761Z,46.1468
2023-04-18T14:04:56.282Z,46.4061
2023-04-18T14:05:57.856Z,48.6877
2023-04-18T14:06:59.473Z,46.2577
2023-04-18T14:08:01.160Z,46.7286
2023-04-18T14:09:03.758Z,46.9022
2023-04-18T14:10:05.377Z,45.6525
2023-04-18T14:11:06.103Z,44.7554
2023-04-18T14:12:07.889Z,40.8775
2023-04-18T14:13:09.380Z,43.2655
2023-04-18T14:14:11.100Z,44.7452
2023-04-18T14:15:12.740Z,46.7504
2023-04-18T14:16:14.351Z,46.9325
2023-04-18T14:17:15.950Z,46.6899
2023-04-18T14:18:17.640Z,45.3010
2023-04-18T14:19:19.319Z,47.2155
2023-04-18T14:20:21.437Z,48.8427
2023-04-18T14:21:22.494Z,47.4625
2023-04-18T14:22:24.213Z,42.6195
2023-04-18T14:23:25.910Z,39.9704
2023-04-18T14:24:27.521Z,39.1004
2023-04-18T14:25:29.171Z,43.6453
2023-04-18T14:26:30.843Z,45.4020
2023-04-18T14:27:32.421Z,47.4789
2023-04-18T14:28:34.134Z,46.4534
2023-04-18T14:29:36.364Z,45.9142
2023-04-18T14:30:37.456Z,44.4069
2023-04-18T14:31:39.104Z,42.9951
2023-04-18T14:32:40.806Z,42.5162
2023-04-18T14:33:42.317Z,44.6390
2023-04-18T14:34:44.087Z,48.5088
2023-04-18T14:35:45.707Z,47.0797
2023-04-18T14:36:47.278Z,47.8974
2023-04-18T14:37:48.924Z,47.9427
2023-04-18T14:38:50.646Z,50.3335
2023-04-18T14:39:52.300Z,51.7173
2023-04-18T14:40:54.010Z,49.7681
2023-04-18T14:41:55.504Z,48.4250
2023-04-18T14:42:57.204Z,48.6076
2023-04-18T14:43:58.801Z,47.4364
2023-04-18T14:45:00.552Z,46.7220
2023-04-18T14:46:02.174Z,47.1804
2023-04-18T14:47:03.873Z,46.2960
2023-04-18T14:48:06.333Z,45.2088
2023-04-18T14:49:07.061Z,41.8925
2023-04-18T14:50:08.812Z,40.6385
2023-04-18T14:51:10.416Z,41.6751
2023-04-18T14:52:12.068Z,43.9373
2023-04-18T14:53:13.656Z,45.5045
2023-04-18T14:54:15.356Z,40.8633
2023-04-18T14:55:16.991Z,46.2874
2023-04-18T14:56:18.739Z,41.5294
2023-04-18T14:57:20.240Z,47.0937
2023-04-18T14:58:21.920Z,45.5040
2023-04-18T14:59:23.535Z,42.2365
2023-04-18T15:00:25.205Z,49.3004
2023-04-18T15:01:26.921Z,43.6691
2023-04-18T15:02:28.578Z,46.3451
2023-04-18T15:03:31.043Z,46.5390
2023-04-18T15:04:31.906Z,48.0181
2023-04-18T15:05:33.501Z,48.5827
2023-04-18T15:06:35.527Z,47.8529
2023-04-18T15:07:36.737Z,47.4115
2023-04-18T15:08:38.388Z,49.5083
2023-04-18T15:09:40.109Z,48.3832
2023-04-18T15:10:41.720Z,44.8797
2023-04-18T15:11:43.610Z,52.1213
2023-04-18T15:12:44.963Z,50.3471
2023-04-18T15:13:46.681Z,48.5745
2023-04-18T15:14:48.248Z,47.1011
2023-04-18T15:15:50.482Z,47.3824
2023-04-18T15:16:51.687Z,50.0345
2023-04-18T15:17:53.314Z,52.4309
2023-04-18T15:18:54.898Z,51.4087
2023-04-18T15:19:56.495Z,50.8413
2023-04-18T15:20:58.214Z,49.0201
2023-04-18T15:22:00.556Z,51.6248
2023-04-18T15:23:01.493Z,50.3635
2023-04-18T15:24:03.099Z,50.6313
2023-04-18T15:25:04.821Z,50.1151
2023-04-18T15:26:06.485Z,50.7933
2023-04-18T15:27:08.116Z,51.6342
2023-04-18T15:28:09.713Z,50.3083
2023-04-18T15:29:11.385Z,47.9922
2023-04-18T15:30:13.061Z,50.6011
2023-04-18T15:31:14.774Z,52.2557
2023-04-18T15:32:16.446Z,55.3378
2023-04-18T15:33:17.998Z,46.9337
2023-04-18T15:34:19.675Z,44.7879
2023-04-18T15:35:21.900Z,46.1148
2023-04-18T15:36:23.037Z,50.5284
2023-04-18T15:37:24.659Z,56.5225
2023-04-18T15:38:26.228Z,53.8284
2023-04-18T15:39:27.831Z,51.3556
2023-04-18T15:40:29.578Z,50.7541
2023-04-18T15:41:31.220Z,51.1265
2023-04-18T15:42:32.966Z,51.2081
2023-04-18T15:43:34.528Z,51.8932
2023-04-18T15:44:36.176Z,53.3843
2023-04-18T15:45:37.858Z,54.1939
2023-04-18T15:46:41.410Z,54.4193
2023-04-18T15:47:42.101Z,54.2253
2023-04-18T15:48:42.776Z,55.7931
2023-04-18T15:49:44.473Z,53.3050
2023-04-18T15:50:46.041Z,52.9658
2023-04-18T15:51:47.798Z,55.8580
2023-04-18T15:52:49.411Z,57.4205
2023-04-18T15:53:51.008Z,55.3184
2023-04-18T15:54:52.604Z,55.5980
2023-04-18T15:55:54.363Z,55.7416
2023-04-18T15:56:55.925Z,55.1067
2023-04-18T15:57:57.583Z,56.0915
2023-04-18T15:58:59.266Z,58.8988
2023-04-18T16:00:00.941Z,52.0180
2023-04-18T16:01:02.562Z,55.1354
2023-04-18T16:02:05.081Z,51.7182
2023-04-18T16:03:05.957Z,56.2288
2023-04-18T16:04:07.619Z,56.7454
2023-04-18T16:05:09.908Z,57.1383
2023-04-18T16:06:10.778Z,56.2928
2023-04-18T16:07:12.444Z,58.1318
2023-04-18T16:08:14.066Z,59.8033
2023-04-18T16:09:15.709Z,59.0402
2023-04-18T16:10:17.347Z,59.7979
2023-04-18T16:11:18.970Z,58.6216
2023-04-18T16:12:20.748Z,56.4105
2023-04-18T16:13:22.284Z,55.5553
2023-04-18T16:14:23.947Z,56.3509
2023-04-18T16:15:25.528Z,59.2785
2023-04-18T16:16:27.211Z,56.8639
2023-04-18T16:17:28.997Z,57.9009
2023-04-18T16:18:30.534Z,56.7472
2023-04-18T16:19:32.943Z,59.2354
2023-04-18T16:20:33.833Z,57.6228
2023-04-18T16:21:35.416Z,59.2467
2023-04-18T16:22:37.104Z,57.4124
2023-04-18T16:23:38.712Z,57.0013
2023-04-18T16:24:42.011Z,59.0811
2023-04-18T16:25:41.998Z,61.2886
2023-04-18T16:26:43.596Z,61.4043
2023-04-18T16:27:45.298Z,57.0893
2023-04-18T16:28:46.874Z,56.2246
2023-04-18T16:29:48.502Z,55.2746
2023-04-18T16:30:50.181Z,55.0936
2023-04-18T16:31:52.067Z,56.1713
2023-04-18T16:32:54.159Z,56.2264
2023-04-18T16:33:55.345Z,59.8852
2023-04-18T16:34:57.885Z,61.5324
2023-04-18T16:35:58.509Z,62.4835
2023-04-18T16:37:01.177Z,61.2380
2023-04-18T16:38:03.664Z,60.2350
2023-04-18T16:39:08.189Z,61.0459
2023-04-18T16:40:09.878Z,60.8243
2023-04-18T16:41:11.561Z,61.2487
2023-04-18T16:42:15.653Z,61.3998
2023-04-18T16:43:14.776Z,60.1778
2023-04-18T16:44:16.452Z,60.7749
2023-04-18T16:45:17.962Z,58.7138
2023-04-18T16:46:19.723Z,58.8819
2023-04-18T16:47:21.277Z,58.2323
2023-04-18T16:48:22.983Z,58.9436
2023-04-18T16:49:24.590Z,58.4160
2023-04-18T16:50:26.273Z,60.9727
2023-04-18T16:51:27.885Z,57.7919
2023-04-18T16:52:29.543Z,54.7753
2023-04-18T16:53:31.518Z,55.0584
2023-04-18T16:54:32.836Z,57.1821
2023-04-18T16:55:34.470Z,59.6569
2023-04-18T16:56:36.160Z,59.2170
2023-04-18T16:57:37.834Z,57.1331
2023-04-18T16:58:39.380Z,55.5587
2023-04-18T16:59:40.997Z,49.5838
2023-04-18T17:00:42.653Z,55.7850
2023-04-18T17:01:44.329Z,53.0899
2023-04-18T17:02:46.007Z,56.8611
2023-04-18T17:03:47.704Z,55.6195
2023-04-18T17:04:49.307Z,54.3036
2023-04-18T17:05:50.817Z,52.8630
2023-04-18T17:06:52.552Z,55.0130
2023-04-18T17:07:54.107Z,53.5987
2023-04-18T17:08:55.960Z,53.8289
2023-04-18T17:09:57.484Z,57.1098
2023-04-18T17:10:59.191Z,53.4026
2023-04-18T17:12:00.785Z,59.2464
2023-04-18T17:13:02.694Z,57.1786
2023-04-18T17:14:04.145Z,57.2470
2023-04-18T17:15:06.026Z,59.0963
2023-04-18T17:16:07.429Z,60.0910
2023-04-18T17:17:09.051Z,58.2565
2023-04-18T17:18:10.796Z,58.0593
2023-04-18T17:19:12.526Z,59.0845
2023-04-18T17:20:14.983Z,60.6345
2023-04-18T17:21:15.663Z,57.5813
2023-04-18T17:22:17.277Z,58.9211
2023-04-18T17:23:18.977Z,57.3112
2023-04-18T17:24:20.648Z,57.2347
2023-04-18T17:25:22.481Z,57.9569
2023-04-18T17:26:23.917Z,56.0837
2023-04-18T17:27:25.571Z,55.2960
2023-04-18T17:28:27.217Z,56.6092
2023-04-18T17:29:28.879Z,58.8871
2023-04-18T17:30:30.970Z,59.3103
2023-04-18T17:31:32.262Z,57.8770
2023-04-18T17:32:33.908Z,57.7372
2023-04-18T17:33:36.406Z,58.8640
2023-04-18T17:34:37.165Z,56.0338
2023-04-18T17:35:38.797Z,54.7772
2023-04-18T17:36:40.416Z,55.0427
2023-04-18T17:37:42.106Z,54.1692
2023-04-18T17:38:43.764Z,55.8842
2023-04-18T17:39:45.341Z,57.1051
2023-04-18T17:40:47.486Z,57.4655
2023-04-18T17:41:48.573Z,55.3069
2023-04-18T17:42:50.327Z,59.5476
2023-04-18T17:43:51.946Z,62.4324
2023-04-18T17:44:53.651Z,62.4100
2023-04-18T17:45:55.318Z,60.7773
2023-04-18T17:46:56.978Z,63.4678
2023-04-18T17:47:58.793Z,62.8509
2023-04-18T17:49:00.553Z,57.0953
2023-04-18T17:50:02.024Z,59.3239
2023-04-18T17:51:03.685Z,60.9249
2023-04-18T17:52:05.645Z,62.0415
2023-04-18T17:53:06.936Z,63.2023
2023-04-18T17:54:08.686Z,64.2776
2023-04-18T17:55:10.358Z,63.7670
2023-04-18T17:56:12.102Z,63.4014
2023-04-18T17:57:13.513Z,63.2688
2023-04-18T17:58:15.291Z,62.6068
2023-04-18T17:59:16.970Z,64.2679
2023-04-18T18:00:18.534Z,63.5089
2023-04-18T18:01:20.182Z,64.2653
2023-04-18T18:02:23.243Z,65.0444
2023-04-18T18:03:23.417Z,64.8731
2023-04-18T18:04:28.180Z,64.7436
2023-04-18T18:05:26.684Z,64.5454
2023-04-18T18:06:28.367Z,64.6310
2023-04-18T18:07:29.977Z,65.6443
2023-04-18T18:08:31.618Z,63.3564
2023-04-18T18:09:33.198Z,64.3448
2023-04-18T18:10:34.954Z,63.6511
2023-04-18T18:11:36.658Z,63.4307
2023-04-18T18:12:38.204Z,64.5181
2023-04-18T18:13:39.782Z,64.2027
2023-04-18T18:14:41.505Z,64.5606
2023-04-18T18:15:43.216Z,64.8491
2023-04-18T18:16:44.866Z,64.9661
2023-04-18T18:17:46.494Z,65.6521
2023-04-18T18:18:48.074Z,66.0148
2023-04-18T18:19:49.734Z,64.3920
2023-04-18T18:20:51.370Z,64.6833
2023-04-18T18:21:53.089Z,64.4310
2023-04-18T18:22:54.662Z,65.0041
2023-04-18T18:23:56.324Z,63.6805
2023-04-18T18:24:57.969Z,64.0993
2023-04-18T18:25:59.660Z,64.2474
2023-04-18T18:27:01.279Z,64.9496
2023-04-18T18:28:02.903Z,63.7569
2023-04-18T18:29:04.511Z,64.2540
2023-04-18T18:30:06.211Z,63.7835
2023-04-18T18:31:07.908Z,63.9607
2023-04-18T18:32:09.523Z,63.3795
2023-04-18T18:33:11.983Z,63.9381
2023-04-18T18:34:12.771Z,63.7964
2023-04-18T18:35:14.462Z,65.4830
2023-04-18T18:36:16.142Z,66.3085
2023-04-18T18:37:17.704Z,65.9265
2023-04-18T18:38:19.359Z,64.1456
2023-04-18T18:39:21.094Z,64.4101
2023-04-18T18:40:22.682Z,65.5246
2023-04-18T18:41:24.646Z,65.1205
2023-04-18T18:42:25.968Z,64.0729
2023-04-18T18:43:27.593Z,64.4163
2023-04-18T18:44:29.204Z,64.9756
2023-04-18T18:45:30.887Z,65.7511
2023-04-18T18:46:32.685Z,64.6718
2023-04-18T18:47:34.922Z,65.5445
2023-04-18T18:48:35.816Z,65.9210
2023-04-18T18:49:37.483Z,66.1145
2023-04-18T18:50:39.133Z,66.3970
2023-04-18T18:51:40.853Z,65.4123
2023-04-18T18:52:42.435Z,65.7181
2023-04-18T18:53:45.160Z,66.4952
2023-04-18T18:54:45.716Z,66.9136
2023-04-18T18:55:47.290Z,66.8859
2023-04-18T18:56:49.024Z,65.6312
2023-04-18T18:57:50.694Z,67.7847
2023-04-18T18:58:52.439Z,68.0744
2023-04-18T18:59:55.721Z,67.3286
2023-04-18T19:00:55.575Z,66.2793
2023-04-18T19:01:57.292Z,66.5162
2023-04-18T19:02:59.713Z,66.1117
2023-04-18T19:04:00.710Z,65.8589
2023-04-18T19:05:02.317Z,68.2673
2023-04-18T19:06:03.728Z,67.2941
2023-04-18T19:07:05.449Z,66.8203
2023-04-18T19:08:07.197Z,66.3128
2023-04-18T19:09:08.757Z,68.1406
2023-04-18T19:10:10.370Z,66.2433
2023-04-18T19:11:12.016Z,67.1302
2023-04-18T19:12:13.738Z,67.3384
2023-04-18T19:13:15.397Z,67.5846
2023-04-18T19:14:17.019Z,67.7065
2023-04-18T19:15:18.567Z,67.1521
2023-04-18T19:16:20.347Z,67.1778
2023-04-18T19:17:22.037Z,67.7492
2023-04-18T19:18:23.631Z,67.3818
2023-04-18T19:19:25.136Z,68.1173
2023-04-18T19:20:28.721Z,66.8619
2023-04-18T19:21:28.513Z,67.6431
2023-04-18T19:22:30.230Z,67.9538
2023-04-18T19:23:32.096Z,66.8667
2023-04-18T19:24:33.448Z,67.3682
2023-04-18T19:25:35.048Z,67.6752
2023-04-18T19:26:36.727Z,67.5400
2023-04-18T19:27:38.414Z,67.1105
2023-04-18T19:28:40.156Z,66.2164
2023-04-18T19:29:41.679Z,67.2196
2023-04-18T19:30:43.314Z,67.3806
2023-04-18T19:31:44.942Z,67.6673
2023-04-18T19:32:46.695Z,67.7299
2023-04-18T19:33:48.327Z,67.4936
2023-04-18T19:34:49.905Z,67.3132
2023-04-18T19:35:51.610Z,67.4015
2023-04-18T19:36:53.237Z,68.6995
2023-04-18T19:37:54.911Z,67.0870
2023-04-18T19:38:56.611Z,68.1718
2023-04-18T19:39:58.216Z,68.8844
2023-04-18T19:40:59.803Z,67.3429
2023-04-18T19:42:01.400Z,68.0152
2023-04-18T19:43:03.619Z,67.7715
2023-04-18T19:44:04.773Z,68.0643
2023-04-18T19:45:06.432Z,68.4806
2023-04-18T19:46:08.199Z,68.0495
2023-04-18T19:47:09.717Z,68.9968
2023-04-18T19:48:11.404Z,68.3761
2023-04-18T19:49:13.308Z,68.4314
2023-04-18T19:50:14.723Z,68.4641
2023-04-18T19:51:16.272Z,68.6789
2023-04-18T19:52:18.007Z,69.1447
2023-04-18T19:53:20.301Z,68.6793
2023-04-18T19:54:21.972Z,68.9549
2023-04-18T19:55:23.024Z,69.1191
2023-04-18T19:56:24.532Z,69.2318
2023-04-18T19:57:26.256Z,68.6271
2023-04-18T19:58:27.819Z,68.1462
2023-04-18T19:59:29.515Z,68.2700
2023-04-18T20:00:31.134Z,67.3568
2023-04-18T20:01:32.854Z,68.4035
2023-04-18T20:02:34.640Z,68.4794
2023-04-18T20:03:36.276Z,68.9662
2023-04-18T20:04:37.985Z,68.8538
2023-04-18T20:05:39.409Z,67.2764
2023-04-18T20:06:41.009Z,67.7336
2023-04-18T20:07:42.676Z,67.7967
2023-04-18T20:08:44.326Z,68.1214
2023-04-18T20:09:45.957Z,67.5192
2023-04-18T20:10:47.601Z,69.1114
2023-04-18T20:11:49.261Z,68.2991
2023-04-18T20:12:50.843Z,68.6905
2023-04-18T20:13:52.598Z,69.1085
2023-04-18T20:14:54.175Z,69.3051
2023-04-18T20:15:55.834Z,69.2195
2023-04-18T20:16:57.568Z,68.8866
2023-04-18T20:17:59.256Z,68.9917
2023-04-18T20:19:00.803Z,68.6683
2023-04-18T20:20:02.380Z,68.8707
2023-04-18T20:21:04.087Z,69.1326
2023-04-18T20:22:05.697Z,68.8585
2023-04-18T20:23:07.309Z,68.8572
2023-04-18T20:24:09.026Z,68.3149
2023-04-18T20:25:10.653Z,68.7099
2023-04-18T20:26:13.094Z,69.1537
2023-04-18T20:27:13.890Z,68.1185
2023-04-18T20:28:15.581Z,69.6486
2023-04-18T20:29:17.285Z,68.8897
2023-04-18T20:30:18.856Z,68.5582
2023-04-18T20:31:20.574Z,68.4798
2023-04-18T20:32:22.139Z,68.0327
2023-04-18T20:33:23.825Z,69.0471
2023-04-18T20:34:25.506Z,68.0900
2023-04-18T20:35:27.163Z,68.7641
2023-04-18T20:36:28.777Z,68.2780
2023-04-18T20:37:30.445Z,67.7653
2023-04-18T20:38:32.092Z,67.7485
2023-04-18T20:39:33.776Z,67.8072
2023-04-18T20:40:35.354Z,67.8046
2023-04-18T20:41:37.022Z,67.9430
2023-04-18T20:42:38.637Z,67.9838
2023-04-18T20:43:40.370Z,68.2845
2023-04-18T20:44:42.074Z,67.9091
2023-04-18T20:45:43.650Z,67.9418
2023-04-18T20:46:45.274Z,68.3743
2023-04-18T20:47:46.957Z,68.2980
2023-04-18T20:48:48.510Z,68.4958
2023-04-18T20:49:50.165Z,68.3442
2023-04-18T20:50:51.947Z,68.7090
2023-04-18T20:51:53.424Z,68.2858
2023-04-18T20:52:55.162Z,67.7013
2023-04-18T20:53:56.716Z,68.7154
2023-04-18T20:54:58.477Z,67.7261
2023-04-18T20:56:00.086Z,68.4587
2023-04-18T20:57:01.719Z,68.0832
2023-04-18T20:58:03.335Z,68.0858
2023-04-18T20:59:05.068Z,68.3781
2023-04-18T21:00:06.685Z,69.0694
2023-04-18T21:01:08.356Z,68.6055
2023-04-18T21:02:10.089Z,67.9314
2023-04-18T21:03:11.750Z,68.5671
2023-04-18T21:04:13.680Z,66.5339
2023-04-18T21:05:14.971Z,65.8406
2023-04-18T21:06:16.506Z,65.1178
2023-04-18T21:07:18.199Z,63.9239
2023-04-18T21:08:19.820Z,65.6195
2023-04-18T21:09:21.488Z,67.2288
2023-04-18T21:10:23.161Z,67.6407
2023-04-18T21:11:24.790Z,68.5505
2023-04-18T21:12:26.351Z,68.2054
2023-04-18T21:13:28.083Z,67.6742
2023-04-18T21:14:29.681Z,67.7878
2023-04-18T21:15:31.401Z,68.5096
2023-04-18T21:16:33.141Z,67.7205
2023-04-18T21:17:34.692Z,67.6033
2023-04-18T21:18:36.541Z,65.0722
2023-04-18T21:19:37.977Z,62.9784
2023-04-18T21:20:39.672Z,63.6326
2023-04-18T21:21:41.259Z,65.6726
2023-04-18T21:22:42.911Z,66.8210
2023-04-18T21:23:44.542Z,67.0931
2023-04-18T21:24:46.190Z,67.4004
2023-04-18T21:25:47.903Z,67.0912
2023-04-18T21:26:49.441Z,66.5854
2023-04-18T21:27:51.149Z,67.6641
2023-04-18T21:28:52.755Z,68.0752
2023-04-18T21:29:54.440Z,67.1336
2023-04-18T21:30:56.164Z,67.0378
2023-04-18T21:31:57.785Z,66.3729
2023-04-18T21:32:59.377Z,62.9872
2023-04-18T21:34:01.068Z,65.1355
2023-04-18T21:35:03.605Z,64.8107
2023-04-18T21:36:04.353Z,65.4536
2023-04-18T21:37:05.962Z,64.9079
2023-04-18T21:38:07.538Z,66.6931
2023-04-18T21:39:09.241Z,66.4708
2023-04-18T21:40:10.952Z,66.5944
2023-04-18T21:41:12.612Z,65.7451
2023-04-18T21:42:14.110Z,66.4333
2023-04-18T21:43:15.841Z,67.4104
2023-04-18T21:44:17.477Z,66.5264
2023-04-18T21:45:19.194Z,65.5751
2023-04-18T21:46:24.220Z,64.2534
2023-04-18T21:47:22.402Z,62.7723
2023-04-18T21:48:24.013Z,62.7242
2023-04-18T21:49:25.643Z,64.1467
2023-04-18T21:50:27.306Z,64.7586
2023-04-18T21:51:29.113Z,65.8130
2023-04-18T21:52:30.597Z,65.6800
2023-04-18T21:53:32.259Z,65.8030
2023-04-18T21:54:33.881Z,65.6218
2023-04-18T21:55:35.561Z,65.6357
2023-04-18T21:56:37.224Z,66.2502
2023-04-18T21:57:38.826Z,65.5164
2023-04-18T21:58:40.453Z,64.8103
2023-04-18T21:59:42.209Z,63.4511
2023-04-18T22:00:43.846Z,61.9438
2023-04-18T22:01:45.449Z,63.0442
2023-04-18T22:02:47.313Z,64.4918
2023-04-18T22:03:48.888Z,64.8727
2023-04-18T22:04:50.332Z,65.6512
2023-04-18T22:05:52.548Z,65.8854
2023-04-18T22:06:53.682Z,65.5624
2023-04-18T22:07:58.458Z,65.5440
2023-04-18T22:08:56.928Z,66.0346
2023-04-18T22:09:58.606Z,65.7103
2023-04-18T22:11:01.142Z,64.4817
2023-04-18T22:12:01.958Z,63.4082
2023-04-18T22:13:03.601Z,62.6384
2023-04-18T22:14:05.216Z,63.1898
2023-04-18T22:15:06.817Z,62.2545
2023-04-18T22:16:09.101Z,64.9530
2023-04-18T22:17:10.180Z,65.7613
2023-04-18T22:18:11.792Z,66.2294
2023-04-18T22:19:13.410Z,66.2026
2023-04-18T22:20:15.079Z,66.5495
2023-04-18T22:21:16.734Z,66.1195
2023-04-18T22:22:18.408Z,65.0435
2023-04-18T22:23:20.050Z,65.8154
2023-04-18T22:24:21.802Z,63.4038
2023-04-18T22:25:23.322Z,63.1425
2023-04-18T22:26:25.006Z,62.0736
2023-04-18T22:27:27.122Z,62.6639
2023-04-18T22:28:28.291Z,63.9114
2023-04-18T22:29:29.895Z,64.9770
2023-04-18T22:30:31.686Z,66.3705
2023-04-18T22:31:34.061Z,65.7746
2023-04-18T22:32:34.938Z,64.8865
2023-04-18T22:33:36.532Z,65.4763
2023-04-18T22:34:38.104Z,66.1441
2023-04-18T22:35:39.807Z,65.9605
2023-04-18T22:36:41.439Z,63.2329
2023-04-18T22:37:43.599Z,61.5034
2023-04-18T22:38:44.754Z,61.7781
2023-04-18T22:39:46.375Z,62.9564
2023-04-18T22:40:48.007Z,64.7627
2023-04-18T22:41:49.722Z,64.6960
2023-04-18T22:42:51.336Z,65.9090
2023-04-18T22:43:52.992Z,65.4120
2023-04-18T22:44:54.633Z,65.2851
2023-04-18T22:45:56.353Z,64.9964
2023-04-18T22:46:57.974Z,65.2750
2023-04-18T22:48:00.628Z,65.6008
2023-04-18T22:49:01.360Z,63.7223
2023-04-18T22:50:03.090Z,62.1711
2023-04-18T22:51:04.686Z,60.8326
2023-04-18T22:52:06.342Z,60.9105
2023-04-18T22:53:08.082Z,61.2431
2023-04-18T22:54:09.649Z,61.4975
2023-04-18T22:55:11.369Z,64.3196
2023-04-18T22:56:12.922Z,64.6654
2023-04-18T22:57:15.275Z,65.1046
2023-04-18T22:58:16.296Z,65.8611
2023-04-18T22:59:18.791Z,65.3388
2023-04-18T23:00:19.527Z,65.2242
2023-04-18T23:01:23.016Z,65.7099
2023-04-18T23:02:23.005Z,64.3144
2023-04-18T23:03:24.893Z,61.6367
2023-04-18T23:04:26.267Z,60.9686
2023-04-18T23:05:27.763Z,61.0268
2023-04-18T23:06:29.392Z,61.3778
2023-04-18T23:07:30.959Z,62.9746
2023-04-18T23:08:32.718Z,63.8725
2023-04-18T23:09:34.264Z,65.9074
2023-04-18T23:10:35.972Z,64.6286
2023-04-18T23:11:37.589Z,64.7302
2023-04-18T23:12:39.276Z,65.9873
2023-04-18T23:13:40.966Z,65.8629
2023-04-18T23:14:42.573Z,65.7428
2023-04-18T23:15:44.182Z,63.4260
2023-04-18T23:16:45.882Z,62.3254